Time;durP1;ratioP1;P1;durP2;ratioP2;P2;SDS_P1;SDS_P2;PMS_P1;PMS_P2;Temp;Humidity;BMP_temperature;BMP_pressure;BME280_temperature;BME280_humidity;BME280_pressure;Samples;Min_cycle;Max_cycle;Signal;HPM_P1;HPM_P2
2023/07/25 00:00:06;;;;;;;1.15;0.95;;;;;;;;;;4994221;28;20038;-47
2023/07/25 00:02:31;;;;;;;1.23;1.08;;;;;;;;;;4992622;28;20095;-46
2023/07/25 00:04:57;;;;;;;1.75;1.23;;;;;;;;;;4984409;28;20038;-47
2023/07/25 00:07:22;;;;;;;5.50;1.15;;;;;;;;;;4992338;28;20475;-47
2023/07/25 00:09:47;;;;;;;1.90;1.20;;;;;;;;;;4992784;28;20591;-48
2023/07/25 00:12:13;;;;;;;1.48;1.35;;;;;;;;;;4996432;28;20026;-47
2023/07/25 00:14:38;;;;;;;2.78;1.17;;;;;;;;;;4996193;28;20030;-46
2023/07/25 00:17:04;;;;;;;1.55;1.30;;;;;;;;;;4990949;28;20026;-46
2023/07/25 00:19:29;;;;;;;5.15;1.42;;;;;;;;;;4996324;28;20542;-46
2023/07/25 00:21:54;;;;;;;3.53;1.08;;;;;;;;;;4986364;28;20039;-46
2023/07/25 00:24:20;;;;;;;2.05;1.38;;;;;;;;;;4988009;28;20030;-47
2023/07/25 00:26:45;;;;;;;2.30;1.25;;;;;;;;;;4986537;28;20097;-45
2023/07/25 00:29:11;;;;;;;11.55;1.55;;;;;;;;;;4994595;28;20030;-48
2023/07/25 00:31:36;;;;;;;2.72;1.40;;;;;;;;;;4996223;28;20125;-47
2023/07/25 00:34:03;;;;;;;1.60;1.50;;;;;;;;;;4994989;28;20125;-49
2023/07/25 00:36:29;;;;;;;1.80;1.30;;;;;;;;;;4987450;28;20074;-48
2023/07/25 00:38:54;;;;;;;2.25;1.40;;;;;;;;;;4984797;28;20061;-46
2023/07/25 00:41:20;;;;;;;2.35;1.40;;;;;;;;;;4985233;28;20070;-47
2023/07/25 00:43:45;;;;;;;1.63;1.50;;;;;;;;;;4991802;28;20038;-46
2023/07/25 00:46:11;;;;;;;1.58;1.48;;;;;;;;;;4994425;28;20038;-50
2023/07/25 00:48:36;;;;;;;2.33;1.40;;;;;;;;;;4990997;28;20109;-48
2023/07/25 00:51:03;;;;;;;3.08;1.25;;;;;;;;;;4991664;28;20045;-46
2023/07/25 00:53:29;;;;;;;3.17;1.80;;;;;;;;;;4973648;28;20077;-48
2023/07/25 00:55:55;;;;;;;2.40;1.75;;;;;;;;;;4982576;28;20046;-49
2023/07/25 00:58:21;;;;;;;8.48;1.95;;;;;;;;;;4985925;28;20031;-46
2023/07/25 01:00:46;;;;;;;1.92;1.50;;;;;;;;;;4993797;28;20110;-45
2023/07/25 01:03:12;;;;;;;1.83;1.73;;;;;;;;;;4993277;28;20038;-46
2023/07/25 01:05:47;;;;;;;4.38;1.60;;;;;;;;;;4994727;28;20070;-46
2023/07/25 01:08:12;;;;;;;2.25;1.80;;;;;;;;;;4993891;28;20061;-46
2023/07/25 01:10:38;;;;;;;2.03;1.75;;;;;;;;;;4994427;28;20038;-46
2023/07/25 01:13:05;;;;;;;2.90;2.25;;;;;;;;;;4995747;28;20058;-46
2023/07/25 01:15:32;;;;;;;3.75;1.80;;;;;;;;;;4991669;28;20069;-47
2023/07/25 01:17:58;;;;;;;3.17;1.80;;;;;;;;;;4993354;28;20026;-45
2023/07/25 01:20:24;;;;;;;3.30;1.77;;;;;;;;;;4990619;28;20447;-49
2023/07/25 01:22:50;;;;;;;3.50;1.90;;;;;;;;;;4993561;28;20023;-48
2023/07/25 01:25:16;;;;;;;2.10;1.63;;;;;;;;;;4982504;28;20047;-48
2023/07/25 01:27:41;;;;;;;1.60;1.50;;;;;;;;;;4987736;28;20036;-47
2023/07/25 01:30:07;;;;;;;4.40;2.08;;;;;;;;;;4995791;28;20400;-49
2023/07/25 01:32:33;;;;;;;2.33;2.10;;;;;;;;;;4997732;28;20022;-46
2023/07/25 01:34:59;;;;;;;9.63;1.70;;;;;;;;;;4993242;28;20040;-46
2023/07/25 01:37:24;;;;;;;7.63;2.33;;;;;;;;;;4986580;28;20034;-46
2023/07/25 01:39:50;;;;;;;2.47;1.80;;;;;;;;;;4998039;28;20030;-46
2023/07/25 01:42:16;;;;;;;2.85;2.03;;;;;;;;;;4992886;28;20468;-46
2023/07/25 01:44:41;;;;;;;3.38;1.60;;;;;;;;;;4994458;28;20034;-46
2023/07/25 01:47:07;;;;;;;2.25;1.77;;;;;;;;;;4999275;28;20034;-46
2023/07/25 01:49:32;;;;;;;1.90;1.80;;;;;;;;;;4989162;28;20034;-46
2023/07/25 01:51:57;;;;;;;3.30;1.77;;;;;;;;;;4995761;28;20049;-47
2023/07/25 01:54:23;;;;;;;3.08;1.85;;;;;;;;;;4993543;28;20025;-47
2023/07/25 01:56:48;;;;;;;2.53;2.03;;;;;;;;;;4992611;28;20039;-49
2023/07/25 01:59:14;;;;;;;3.60;2.22;;;;;;;;;;4996244;28;20026;-47
2023/07/25 02:01:39;;;;;;;5.25;2.10;;;;;;;;;;4987683;28;20046;-49
2023/07/25 02:04:05;;;;;;;2.88;2.45;;;;;;;;;;4997905;28;20088;-47
2023/07/25 02:06:30;;;;;;;4.15;2.10;;;;;;;;;;4995456;28;20042;-47
2023/07/25 02:08:55;;;;;;;5.45;2.40;;;;;;;;;;4991350;28;20561;-46
2023/07/25 02:11:21;;;;;;;29.00;3.80;;;;;;;;;;4997292;28;20496;-46
2023/07/25 02:13:46;;;;;;;2.25;2.05;;;;;;;;;;4996427;28;20459;-47
2023/07/25 02:16:12;;;;;;;6.35;2.22;;;;;;;;;;4987545;28;20137;-46
2023/07/25 02:18:37;;;;;;;4.57;2.17;;;;;;;;;;4996614;28;20026;-48
2023/07/25 02:21:03;;;;;;;5.00;2.17;;;;;;;;;;4986394;28;20058;-45
2023/07/25 02:23:28;;;;;;;3.70;2.50;;;;;;;;;;4983899;28;20460;-45
2023/07/25 02:25:53;;;;;;;4.32;2.20;;;;;;;;;;5007715;28;20589;-46
2023/07/25 02:28:19;;;;;;;2.70;2.42;;;;;;;;;;4986091;28;20033;-46
2023/07/25 02:30:47;;;;;;;7.25;2.35;;;;;;;;;;4997807;28;20045;-46
2023/07/25 02:33:13;;;;;;;5.03;2.13;;;;;;;;;;4994481;28;20037;-48
2023/07/25 02:35:39;;;;;;;5.30;2.10;;;;;;;;;;4991707;28;20051;-46
2023/07/25 02:38:04;;;;;;;4.38;2.25;;;;;;;;;;4980235;28;20042;-49
2023/07/25 02:40:29;;;;;;;2.97;2.03;;;;;;;;;;4989794;28;20046;-46
2023/07/25 02:42:55;;;;;;;2.38;2.00;;;;;;;;;;4992039;28;20026;-49
2023/07/25 02:45:20;;;;;;;5.93;2.38;;;;;;;;;;4986757;28;20061;-46
2023/07/25 02:47:46;;;;;;;2.28;1.73;;;;;;;;;;5005711;28;20512;-47
2023/07/25 02:50:11;;;;;;;3.53;2.00;;;;;;;;;;4988680;28;20555;-47
2023/07/25 02:52:36;;;;;;;6.28;2.08;;;;;;;;;;4989184;28;20034;-46
2023/07/25 02:55:03;;;;;;;2.15;1.90;;;;;;;;;;4983956;28;20092;-47
2023/07/25 02:57:28;;;;;;;5.90;2.05;;;;;;;;;;4996388;28;20026;-47
2023/07/25 02:59:54;;;;;;;11.50;2.38;;;;;;;;;;4984659;28;20030;-49
2023/07/25 03:02:19;;;;;;;4.43;2.53;;;;;;;;;;4991876;28;20114;-48
2023/07/25 03:04:44;;;;;;;3.92;1.95;;;;;;;;;;4990898;28;20519;-50
2023/07/25 03:07:10;;;;;;;5.95;2.33;;;;;;;;;;4995969;28;20101;-49
2023/07/25 03:09:37;;;;;;;3.35;2.33;;;;;;;;;;4996225;28;20096;-47
2023/07/25 03:12:03;;;;;;;3.63;2.15;;;;;;;;;;4996748;28;20064;-48
2023/07/25 03:14:29;;;;;;;6.68;1.88;;;;;;;;;;4965158;28;20049;-48
2023/07/25 03:16:54;;;;;;;2.47;1.98;;;;;;;;;;4997452;28;20042;-46
2023/07/25 03:19:20;;;;;;;7.10;2.33;;;;;;;;;;4995802;28;20433;-47
2023/07/25 03:21:45;;;;;;;2.83;2.13;;;;;;;;;;4986511;28;20030;-48
2023/07/25 03:24:10;;;;;;;3.08;2.13;;;;;;;;;;4994185;28;20034;-46
2023/07/25 03:26:36;;;;;;;2.00;1.73;;;;;;;;;;4994681;28;20042;-46
2023/07/25 03:29:02;;;;;;;2.90;1.95;;;;;;;;;;4997230;28;20469;-48
2023/07/25 03:31:27;;;;;;;2.35;1.67;;;;;;;;;;4977918;28;20027;-46
2023/07/25 03:33:52;;;;;;;3.40;1.88;;;;;;;;;;4987708;28;20497;-49
2023/07/25 03:36:18;;;;;;;3.15;1.90;;;;;;;;;;4984727;28;20045;-46
2023/07/25 03:38:43;;;;;;;2.10;1.73;;;;;;;;;;4990631;28;20034;-46
2023/07/25 03:41:09;;;;;;;1.90;1.80;;;;;;;;;;5003681;28;20401;-48
2023/07/25 03:43:34;;;;;;;3.75;1.75;;;;;;;;;;4994617;28;20030;-46
2023/07/25 03:45:59;;;;;;;3.42;2.10;;;;;;;;;;4982903;28;20053;-47
2023/07/25 03:48:25;;;;;;;2.00;1.85;;;;;;;;;;4985644;28;20055;-46
2023/07/25 03:50:50;;;;;;;2.20;2.00;;;;;;;;;;4994728;28;20066;-47
2023/07/25 03:53:16;;;;;;;1.83;1.73;;;;;;;;;;4997115;28;20425;-47
2023/07/25 03:55:41;;;;;;;3.28;1.80;;;;;;;;;;4992095;28;20401;-46
2023/07/25 03:58:06;;;;;;;1.75;1.65;;;;;;;;;;4995825;28;20112;-48
2023/07/25 04:00:32;;;;;;;2.95;1.95;;;;;;;;;;4995654;28;20089;-46
2023/07/25 04:02:57;;;;;;;3.75;2.10;;;;;;;;;;4992770;28;20037;-46
2023/07/25 04:05:23;;;;;;;7.93;2.15;;;;;;;;;;4995090;28;20074;-48
2023/07/25 04:07:48;;;;;;;2.70;2.20;;;;;;;;;;4991051;28;20030;-48
2023/07/25 04:10:13;;;;;;;3.08;1.98;;;;;;;;;;4994143;28;20072;-46
2023/07/25 04:12:39;;;;;;;3.35;1.77;;;;;;;;;;4994716;28;20121;-47
2023/07/25 04:15:05;;;;;;;2.42;2.00;;;;;;;;;;4995335;28;20030;-45
2023/07/25 04:17:30;;;;;;;4.60;2.25;;;;;;;;;;4994502;28;20034;-47
2023/07/25 04:19:55;;;;;;;2.95;2.13;;;;;;;;;;4993172;28;20089;-46
2023/07/25 04:22:21;;;;;;;3.55;1.83;;;;;;;;;;4987169;28;20081;-46
2023/07/25 04:24:47;;;;;;;4.68;2.03;;;;;;;;;;4988660;28;20046;-46
2023/07/25 04:27:12;;;;;;;10.02;2.30;;;;;;;;;;4996427;28;20030;-48
2023/07/25 04:29:38;;;;;;;8.18;2.63;;;;;;;;;;4968970;28;20468;-40
2023/07/25 04:32:03;;;;;;;3.13;2.42;;;;;;;;;;4996119;28;20084;-45
2023/07/25 04:34:29;;;;;;;3.53;2.08;;;;;;;;;;4989305;28;20026;-47
2023/07/25 04:36:55;;;;;;;3.47;2.30;;;;;;;;;;4991997;28;20082;-46
2023/07/25 04:39:20;;;;;;;3.42;1.98;;;;;;;;;;4984762;28;20487;-48
2023/07/25 04:41:46;;;;;;;3.40;2.00;;;;;;;;;;4994808;28;20049;-48
2023/07/25 04:44:11;;;;;;;3.22;2.30;;;;;;;;;;4988633;28;20030;-47
2023/07/25 04:46:36;;;;;;;13.07;2.10;;;;;;;;;;4986012;28;20664;-46
2023/07/25 04:49:02;;;;;;;4.05;2.17;;;;;;;;;;4992926;28;20057;-47
2023/07/25 04:51:27;;;;;;;2.90;2.13;;;;;;;;;;4990640;28;20066;-50
2023/07/25 04:53:53;;;;;;;5.28;2.05;;;;;;;;;;4988441;28;20039;-45
2023/07/25 04:56:18;;;;;;;2.90;1.70;;;;;;;;;;4975989;28;20042;-48
2023/07/25 04:58:44;;;;;;;13.80;2.20;;;;;;;;;;4976292;28;20081;-46
2023/07/25 05:01:10;;;;;;;3.03;2.00;;;;;;;;;;4969582;28;20039;-47
2023/07/25 05:03:35;;;;;;;6.18;2.13;;;;;;;;;;4980047;28;20027;-48
2023/07/25 05:06:01;;;;;;;6.85;2.13;;;;;;;;;;4977888;28;20124;-46
2023/07/25 05:08:27;;;;;;;2.63;2.42;;;;;;;;;;4971074;28;20027;-48
2023/07/25 05:10:54;;;;;;;2.88;2.15;;;;;;;;;;4970401;28;20043;-45
2023/07/25 05:13:19;;;;;;;4.00;2.20;;;;;;;;;;4979790;28;20034;-46
2023/07/25 05:15:45;;;;;;;3.58;1.92;;;;;;;;;;4979804;28;20554;-45
2023/07/25 05:18:10;;;;;;;8.95;2.30;;;;;;;;;;4979761;28;20045;-46
2023/07/25 05:20:35;;;;;;;3.85;2.30;;;;;;;;;;4969251;28;20560;-46
2023/07/25 05:23:01;;;;;;;2.63;1.90;;;;;;;;;;4979962;28;20062;-47
2023/07/25 05:25:26;;;;;;;7.20;2.50;;;;;;;;;;4976853;28;20038;-45
2023/07/25 05:27:52;;;;;;;8.45;1.90;;;;;;;;;;4969240;28;20066;-45
2023/07/25 05:30:17;;;;;;;12.32;2.30;;;;;;;;;;4978082;28;20050;-46
2023/07/25 05:32:44;;;;;;;2.40;1.83;;;;;;;;;;4979860;28;20065;-45
2023/07/25 05:35:09;;;;;;;3.63;2.10;;;;;;;;;;4974485;28;20043;-47
2023/07/25 05:37:38;;;;;;;2.42;1.73;;;;;;;;;;4978384;28;20118;-50
2023/07/25 05:40:05;;;;;;;5.63;2.08;;;;;;;;;;4979763;28;20061;-49
2023/07/25 05:42:31;;;;;;;2.25;2.05;;;;;;;;;;4976252;28;20023;-49
2023/07/25 05:44:58;;;;;;;5.13;1.90;;;;;;;;;;4973976;28;20548;-46
2023/07/25 05:47:24;;;;;;;2.13;1.73;;;;;;;;;;4977921;28;20031;-48
2023/07/25 05:49:49;;;;;;;2.47;1.58;;;;;;;;;;4978245;28;20555;-45
2023/07/25 05:52:15;;;;;;;2.67;1.70;;;;;;;;;;4973664;28;20444;-47
2023/07/25 05:54:40;;;;;;;3.65;1.85;;;;;;;;;;4968249;28;20027;-47
2023/07/25 05:57:07;;;;;;;4.00;1.60;;;;;;;;;;4978323;28;20125;-50
2023/07/25 05:59:32;;;;;;;3.00;1.52;;;;;;;;;;4966127;28;20483;-47
2023/07/25 06:01:58;;;;;;;5.43;1.60;;;;;;;;;;4977753;28;20047;-49
2023/07/25 06:04:23;;;;;;;2.70;1.90;;;;;;;;;;4977835;28;20555;-48
2023/07/25 06:06:48;;;;;;;8.35;2.20;;;;;;;;;;4965176;28;20097;-48
2023/07/25 06:09:14;;;;;;;5.15;2.35;;;;;;;;;;4967237;28;20066;-50
2023/07/25 06:11:39;;;;;;;3.88;1.88;;;;;;;;;;4962749;28;20066;-48
2023/07/25 06:14:05;;;;;;;3.33;1.80;;;;;;;;;;4979259;28;20106;-47
2023/07/25 06:16:30;;;;;;;5.30;1.63;;;;;;;;;;4970863;28;20039;-48
2023/07/25 06:18:56;;;;;;;5.35;1.40;;;;;;;;;;4966493;28;20050;-47
2023/07/25 06:21:21;;;;;;;4.15;1.35;;;;;;;;;;4971925;28;20042;-48
2023/07/25 06:23:46;;;;;;;2.28;1.38;;;;;;;;;;4975209;28;20035;-47
2023/07/25 06:26:12;;;;;;;3.70;1.55;;;;;;;;;;4965276;28;20039;-51
2023/07/25 06:28:37;;;;;;;5.43;1.80;;;;;;;;;;4968015;28;20033;-46
2023/07/25 06:31:03;;;;;;;5.88;1.60;;;;;;;;;;4976798;28;20130;-49
2023/07/25 06:33:28;;;;;;;5.00;1.88;;;;;;;;;;4978267;28;20027;-46
2023/07/25 06:35:54;;;;;;;4.78;1.73;;;;;;;;;;4975020;28;20102;-49
2023/07/25 06:38:19;;;;;;;3.25;1.83;;;;;;;;;;4975674;28;20027;-49
2023/07/25 06:40:45;;;;;;;3.47;1.40;;;;;;;;;;4979109;28;20043;-47
2023/07/25 06:43:10;;;;;;;3.20;1.67;;;;;;;;;;4977323;28;20027;-48
2023/07/25 06:45:35;;;;;;;5.07;1.52;;;;;;;;;;4975941;28;20054;-48
2023/07/25 06:48:01;;;;;;;20.40;1.60;;;;;;;;;;4978848;28;20039;-48
2023/07/25 06:50:26;;;;;;;3.55;1.65;;;;;;;;;;4972407;28;20071;-48
2023/07/25 06:52:52;;;;;;;4.63;1.50;;;;;;;;;;4978933;28;20038;-48
2023/07/25 06:55:19;;;;;;;4.70;1.52;;;;;;;;;;4970797;28;20035;-49
2023/07/25 06:57:47;;;;;;;3.92;1.60;;;;;;;;;;4972530;28;20023;-47
2023/07/25 07:00:14;;;;;;;4.20;1.70;;;;;;;;;;4975342;28;20031;-49
2023/07/25 07:02:41;;;;;;;4.93;1.70;;;;;;;;;;4959486;28;20094;-48
2023/07/25 07:05:06;;;;;;;6.13;1.75;;;;;;;;;;4977047;28;20483;-46
2023/07/25 07:07:33;;;;;;;5.10;1.52;;;;;;;;;;4970245;28;20073;-47
2023/07/25 07:09:58;;;;;;;5.75;1.65;;;;;;;;;;4974838;28;20074;-46
2023/07/25 07:12:24;;;;;;;5.43;1.52;;;;;;;;;;4977285;28;20049;-47
2023/07/25 07:14:49;;;;;;;2.97;1.55;;;;;;;;;;4976271;28;20027;-46
2023/07/25 07:17:14;;;;;;;6.53;1.65;;;;;;;;;;4973552;28;20038;-47
2023/07/25 07:19:40;;;;;;;3.13;2.05;;;;;;;;;;4968698;28;20097;-47
2023/07/25 07:22:05;;;;;;;5.70;2.00;;;;;;;;;;4971869;28;20140;-47
2023/07/25 07:24:31;;;;;;;6.28;1.83;;;;;;;;;;4971028;28;20037;-48
2023/07/25 07:26:56;;;;;;;8.50;2.03;;;;;;;;;;4970035;28;20039;-47
2023/07/25 07:29:21;;;;;;;3.55;1.58;;;;;;;;;;4969297;28;20027;-47
2023/07/25 07:31:47;;;;;;;2.88;1.92;;;;;;;;;;4971523;28;20054;-48
2023/07/25 07:34:16;;;;;;;10.23;1.98;;;;;;;;;;4964240;28;20118;-45
2023/07/25 07:36:43;;;;;;;5.40;1.90;;;;;;;;;;4962777;28;20052;-49
2023/07/25 07:39:08;;;;;;;8.90;1.52;;;;;;;;;;4971776;28;20101;-48
2023/07/25 07:41:37;;;;;;;6.55;2.05;;;;;;;;;;4971092;28;20057;-49
2023/07/25 07:44:02;;;;;;;2.92;1.65;;;;;;;;;;4974964;28;20035;-48
2023/07/25 07:46:29;;;;;;;5.45;1.88;;;;;;;;;;4968224;28;20054;-48
2023/07/25 07:48:57;;;;;;;2.75;1.80;;;;;;;;;;4970010;28;20061;-47
2023/07/25 07:51:23;;;;;;;3.30;1.77;;;;;;;;;;4974862;28;20030;-46
2023/07/25 07:53:49;;;;;;;9.10;1.73;;;;;;;;;;4968822;28;20559;-46
2023/07/25 07:56:14;;;;;;;3.60;1.50;;;;;;;;;;4966104;28;20050;-47
2023/07/25 07:58:40;;;;;;;3.42;1.90;;;;;;;;;;4968435;28;20028;-49
2023/07/25 08:01:16;;;;;;;7.45;1.92;;;;;;;;;;4971961;28;20039;-48
2023/07/25 08:03:45;;;;;;;2.28;1.98;;;;;;;;;;4965857;28;20556;-46
2023/07/25 08:06:11;;;;;;;4.95;1.70;;;;;;;;;;4976329;28;20039;-49
2023/07/25 08:08:37;;;;;;;3.22;1.40;;;;;;;;;;4970824;28;20354;-47
2023/07/25 08:11:03;;;;;;;3.85;1.92;;;;;;;;;;4974319;28;20062;-48
2023/07/25 08:13:28;;;;;;;5.72;2.00;;;;;;;;;;4977539;28;20042;-48
2023/07/25 08:15:54;;;;;;;9.35;2.30;;;;;;;;;;4972235;28;20050;-46
2023/07/25 08:18:20;;;;;;;9.38;1.98;;;;;;;;;;4961270;28;20073;-47
2023/07/25 08:20:45;;;;;;;3.35;1.85;;;;;;;;;;4974671;28;20069;-47
2023/07/25 08:23:11;;;;;;;6.03;1.92;;;;;;;;;;4975538;28;20043;-46
2023/07/25 08:25:40;;;;;;;5.80;2.00;;;;;;;;;;4974938;28;20065;-47
2023/07/25 08:28:06;;;;;;;11.55;2.33;;;;;;;;;;4994852;28;20040;-47
2023/07/25 08:30:32;;;;;;;4.18;1.67;;;;;;;;;;4989508;28;20065;-47
2023/07/25 08:32:57;;;;;;;8.40;2.22;;;;;;;;;;4977318;28;20027;-50
2023/07/25 08:35:23;;;;;;;2.50;1.80;;;;;;;;;;4986089;28;20046;-46
2023/07/25 08:37:49;;;;;;;7.03;1.83;;;;;;;;;;4993625;28;20029;-49
2023/07/25 08:40:15;;;;;;;11.80;1.90;;;;;;;;;;4961045;28;20038;-48
2023/07/25 08:42:45;;;;;;;3.17;1.73;;;;;;;;;;4989504;28;20117;-48
2023/07/25 08:45:11;;;;;;;7.05;1.95;;;;;;;;;;4996068;28;20038;-48
2023/07/25 08:47:41;;;;;;;14.38;2.00;;;;;;;;;;4994469;28;20029;-48
2023/07/25 08:50:15;;;;;;;3.78;2.03;;;;;;;;;;4983656;28;20062;-48
2023/07/25 08:52:43;;;;;;;3.83;1.38;;;;;;;;;;4985842;28;20033;-48
2023/07/25 08:55:08;;;;;;;5.15;1.50;;;;;;;;;;4995692;28;20408;-47
2023/07/25 08:57:35;;;;;;;3.75;1.80;;;;;;;;;;4996065;28;20022;-47
2023/07/25 09:00:01;;;;;;;5.85;1.40;;;;;;;;;;4996184;28;20039;-50
2023/07/25 09:02:27;;;;;;;4.95;1.40;;;;;;;;;;4994958;28;20045;-48
2023/07/25 09:04:53;;;;;;;8.82;1.17;;;;;;;;;;4995609;28;20057;-47
2023/07/25 09:07:19;;;;;;;4.22;1.20;;;;;;;;;;4988768;28;20489;-50
2023/07/25 09:09:44;;;;;;;4.10;1.45;;;;;;;;;;4995319;28;20026;-46
2023/07/25 09:12:10;;;;;;;2.25;1.45;;;;;;;;;;4996473;28;20034;-49
2023/07/25 09:14:39;;;;;;;4.18;1.05;;;;;;;;;;4992487;28;20567;-46
2023/07/25 09:17:06;;;;;;;7.18;1.50;;;;;;;;;;4991199;28;20085;-47
2023/07/25 09:19:32;;;;;;;5.78;1.50;;;;;;;;;;4988400;28;20080;-47
2023/07/25 09:21:58;;;;;;;2.97;1.40;;;;;;;;;;4995191;28;20049;-49
2023/07/25 09:24:23;;;;;;;5.30;1.33;;;;;;;;;;4993227;28;20384;-46
2023/07/25 09:26:50;;;;;;;2.38;1.20;;;;;;;;;;4984016;28;20038;-49
2023/07/25 09:29:24;;;;;;;5.30;1.52;;;;;;;;;;4989956;28;20026;-48
2023/07/25 09:31:49;;;;;;;7.20;1.23;;;;;;;;;;4990431;28;20045;-47
2023/07/25 09:34:23;;;;;;;3.08;0.90;;;;;;;;;;4989776;28;20027;-44
2023/07/25 09:36:49;;;;;;;5.15;1.10;;;;;;;;;;4984540;28;20058;-48
2023/07/25 09:39:15;;;;;;;8.40;1.20;;;;;;;;;;4993481;28;20034;-47
2023/07/25 09:41:42;;;;;;;3.42;1.40;;;;;;;;;;4993198;28;20097;-46
2023/07/25 09:44:08;;;;;;;1.83;1.05;;;;;;;;;;4992214;28;20037;-52
2023/07/25 09:46:34;;;;;;;4.22;0.93;;;;;;;;;;4998615;28;20043;-48
2023/07/25 09:49:00;;;;;;;4.50;1.30;;;;;;;;;;4993399;28;20101;-47
2023/07/25 09:51:25;;;;;;;4.25;1.83;;;;;;;;;;4997048;28;20092;-47
2023/07/25 09:53:52;;;;;;;1.70;0.98;;;;;;;;;;4997501;28;20023;-47
2023/07/25 09:56:21;;;;;;;8.27;1.13;;;;;;;;;;4989915;28;20042;-47
2023/07/25 09:58:48;;;;;;;4.32;1.13;;;;;;;;;;4988733;28;20053;-48
2023/07/25 10:01:15;;;;;;;5.95;0.77;;;;;;;;;;4985279;28;20062;-48
2023/07/25 10:03:43;;;;;;;12.07;1.20;;;;;;;;;;4996229;28;20412;-47
2023/07/25 10:06:10;;;;;;;8.15;0.82;;;;;;;;;;4997142;28;20416;-49
2023/07/25 10:08:38;;;;;;;2.83;1.10;;;;;;;;;;4994391;28;20408;-47
2023/07/25 10:11:04;;;;;;;2.00;1.00;;;;;;;;;;4972326;28;20062;-52
2023/07/25 10:13:32;;;;;;;14.45;1.15;;;;;;;;;;4998081;28;20027;-49
2023/07/25 10:16:00;;;;;;;8.38;1.33;;;;;;;;;;4987649;28;20581;-46
2023/07/25 10:18:27;;;;;;;3.63;1.13;;;;;;;;;;4998033;28;20030;-47
2023/07/25 10:20:54;;;;;;;8.98;1.27;;;;;;;;;;4990267;28;20046;-46
2023/07/25 10:23:34;;;;;;;1.23;0.85;;;;;;;;;;4993789;28;20038;-46
2023/07/25 10:26:29;;;;;;;9.73;1.13;;;;;;;;;;4992568;28;20043;-48
2023/07/25 10:29:01;;;;;;;2.88;1.10;;;;;;;;;;4969341;28;20042;-49
2023/07/25 10:31:33;;;;;;;3.25;0.98;;;;;;;;;;4962263;28;20039;-50
2023/07/25 10:33:59;;;;;;;5.05;1.13;;;;;;;;;;4992639;28;20022;-49
2023/07/25 10:36:25;;;;;;;7.30;1.55;;;;;;;;;;4997455;28;20046;-46
2023/07/25 10:39:09;;;;;;;8.52;1.58;;;;;;;;;;4979337;28;20055;-48
2023/07/25 10:41:34;;;;;;;22.60;1.45;;;;;;;;;;5004573;28;20058;-50
2023/07/25 10:44:01;;;;;;;13.15;1.23;;;;;;;;;;4994414;28;20026;-49
2023/07/25 10:46:32;;;;;;;7.63;1.30;;;;;;;;;;4996738;28;20129;-49
2023/07/25 10:49:16;;;;;;;14.20;1.60;;;;;;;;;;4995978;28;20050;-47
2023/07/25 10:51:50;;;;;;;7.22;1.20;;;;;;;;;;4989453;28;20037;-47
2023/07/25 10:54:17;;;;;;;5.75;1.08;;;;;;;;;;4989364;28;20031;-47
2023/07/25 10:57:13;;;;;;;5.30;1.13;;;;;;;;;;4993070;28;20042;-51
2023/07/25 11:00:09;;;;;;;4.95;1.17;;;;;;;;;;4996488;28;20038;-44
2023/07/25 11:02:40;;;;;;;5.85;1.02;;;;;;;;;;4996957;28;20108;-47
2023/07/25 11:05:12;;;;;;;5.13;1.07;;;;;;;;;;4990363;28;20044;-48
2023/07/25 11:07:40;;;;;;;;;;;;;;;;;;4998590;28;20448;-47
2023/07/25 11:10:06;;;;;;;4.28;1.00;;;;;;;;;;4995798;28;19917;-45
2023/07/25 11:12:32;;;;;;;5.85;1.10;;;;;;;;;;4984207;28;20039;-45
2023/07/25 11:14:58;;;;;;;2.20;1.35;;;;;;;;;;4993598;28;20033;-45
2023/07/25 11:17:27;;;;;;;11.32;1.08;;;;;;;;;;4996265;28;20018;-49
2023/07/25 11:19:53;;;;;;;8.50;1.00;;;;;;;;;;4997277;28;20033;-46
2023/07/25 11:22:18;;;;;;;4.30;0.88;;;;;;;;;;4992569;28;20468;-46
2023/07/25 11:24:46;;;;;;;9.48;1.85;;;;;;;;;;4994760;28;20034;-46
2023/07/25 11:27:13;;;;;;;5.35;1.15;;;;;;;;;;4977415;28;20082;-49
2023/07/25 11:29:39;;;;;;;9.85;0.90;;;;;;;;;;4977751;28;20106;-45
2023/07/25 11:32:05;;;;;;;2.67;1.10;;;;;;;;;;4987393;28;20253;-46
2023/07/25 11:34:30;;;;;;;8.85;0.95;;;;;;;;;;4989165;28;20034;-48
2023/07/25 11:36:56;;;;;;;3.95;1.20;;;;;;;;;;4988732;28;20043;-46
2023/07/25 11:39:22;;;;;;;3.72;1.40;;;;;;;;;;4997012;28;20077;-48
2023/07/25 11:41:47;;;;;;;6.53;1.50;;;;;;;;;;4993559;28;20042;-46
2023/07/25 11:44:18;;;;;;;5.63;1.13;;;;;;;;;;4994250;28;20073;-45
2023/07/25 11:46:50;;;;;;;5.40;1.05;;;;;;;;;;4996787;28;20501;-47
2023/07/25 11:49:17;;;;;;;3.50;1.00;;;;;;;;;;4995325;28;20388;-49
2023/07/25 11:51:42;;;;;;;3.75;0.95;;;;;;;;;;4989387;28;20031;-45
2023/07/25 11:54:08;;;;;;;6.25;1.30;;;;;;;;;;4997389;28;20380;-46
2023/07/25 11:56:35;;;;;;;7.45;1.55;;;;;;;;;;4989513;28;20065;-45
2023/07/25 11:59:01;;;;;;;5.88;1.40;;;;;;;;;;4994586;28;20088;-50
2023/07/25 12:01:32;;;;;;;7.57;1.23;;;;;;;;;;4979305;28;20039;-47
2023/07/25 12:04:00;;;;;;;5.67;1.20;;;;;;;;;;4989745;28;20031;-47
2023/07/25 12:06:32;;;;;;;15.25;1.23;;;;;;;;;;4992700;28;20464;-47
2023/07/25 12:09:01;;;;;;;9.07;1.50;;;;;;;;;;4994820;28;20120;-49
2023/07/25 12:11:27;;;;;;;19.50;1.88;;;;;;;;;;4991001;28;20042;-45
2023/07/25 12:13:54;;;;;;;9.43;1.30;;;;;;;;;;4985301;28;20532;-46
2023/07/25 12:16:23;;;;;;;7.72;1.20;;;;;;;;;;4996187;28;20128;-45
2023/07/25 12:18:51;;;;;;;4.63;1.40;;;;;;;;;;4993503;28;20128;-47
2023/07/25 12:21:28;;;;;;;7.30;1.35;;;;;;;;;;4994341;28;20069;-48
2023/07/25 12:23:54;;;;;;;7.72;1.55;;;;;;;;;;4993027;28;20034;-50
2023/07/25 12:26:21;;;;;;;9.70;1.55;;;;;;;;;;4992915;28;20412;-46
2023/07/25 12:28:47;;;;;;;14.95;1.40;;;;;;;;;;4996842;28;20030;-47
2023/07/25 12:31:13;;;;;;;2.30;1.08;;;;;;;;;;4994760;28;20058;-46
2023/07/25 12:33:41;;;;;;;3.13;1.20;;;;;;;;;;4993713;28;20046;-51
2023/07/25 12:36:06;;;;;;;3.67;1.30;;;;;;;;;;4984288;28;20038;-48
2023/07/25 12:38:32;;;;;;;3.38;1.63;;;;;;;;;;4994886;28;20114;-47
2023/07/25 12:40:58;;;;;;;3.53;1.33;;;;;;;;;;4994217;28;20403;-46
2023/07/25 12:43:23;;;;;;;3.03;1.50;;;;;;;;;;4995177;28;20058;-47
2023/07/25 12:45:48;;;;;;;3.10;1.48;;;;;;;;;;4994816;28;20085;-48
2023/07/25 12:48:14;;;;;;;6.82;1.40;;;;;;;;;;4987547;28;20299;-51
2023/07/25 12:50:39;;;;;;;4.50;1.55;;;;;;;;;;4984867;28;20125;-50
2023/07/25 12:53:08;;;;;;;3.20;1.52;;;;;;;;;;4991387;28;20049;-49
2023/07/25 12:55:34;;;;;;;7.68;1.45;;;;;;;;;;4983966;28;20042;-45
2023/07/25 12:58:00;;;;;;;3.92;1.42;;;;;;;;;;4990056;28;20034;-48
2023/07/25 13:00:26;;;;;;;7.90;1.40;;;;;;;;;;4994561;28;20038;-45
2023/07/25 13:02:52;;;;;;;6.13;1.42;;;;;;;;;;4986223;28;20109;-46
2023/07/25 13:05:17;;;;;;;4.85;1.40;;;;;;;;;;4969015;28;20050;-49
2023/07/25 13:07:42;;;;;;;10.95;1.60;;;;;;;;;;4993898;28;20034;-46
2023/07/25 13:10:10;;;;;;;14.30;1.50;;;;;;;;;;4991223;28;20049;-45
2023/07/25 13:12:36;;;;;;;10.00;1.77;;;;;;;;;;4991378;28;20415;-46
2023/07/25 13:15:06;;;;;;;4.00;1.73;;;;;;;;;;4988201;28;20042;-48
2023/07/25 13:17:32;;;;;;;6.10;1.35;;;;;;;;;;4990994;28;20117;-44
2023/07/25 13:19:59;;;;;;;4.20;1.45;;;;;;;;;;4979775;28;20043;-47
2023/07/25 13:22:24;;;;;;;4.75;1.30;;;;;;;;;;4990874;28;20041;-46
2023/07/25 13:24:54;;;;;;;5.05;1.80;;;;;;;;;;4991615;28;20500;-46
2023/07/25 13:27:24;;;;;;;7.15;1.75;;;;;;;;;;4988849;28;20033;-46
2023/07/25 13:29:49;;;;;;;6.50;1.67;;;;;;;;;;4987715;28;20052;-45
2023/07/25 13:32:14;;;;;;;3.88;1.08;;;;;;;;;;4999568;28;20038;-46
2023/07/25 13:34:40;;;;;;;6.68;2.08;;;;;;;;;;4996966;28;20066;-48
2023/07/25 13:37:05;;;;;;;10.98;1.77;;;;;;;;;;4999420;28;20034;-49
2023/07/25 13:39:31;;;;;;;6.50;1.65;;;;;;;;;;4999699;28;20022;-46
2023/07/25 13:41:56;;;;;;;7.50;1.20;;;;;;;;;;4989427;28;20045;-45
2023/07/25 13:44:21;;;;;;;12.85;1.77;;;;;;;;;;4995320;28;20030;-45
2023/07/25 13:46:50;;;;;;;8.32;1.90;;;;;;;;;;4998720;28;20041;-46
2023/07/25 13:49:15;;;;;;;3.78;1.48;;;;;;;;;;4984341;28;20031;-45
2023/07/25 13:51:40;;;;;;;5.65;1.80;;;;;;;;;;4968879;28;20393;-46
2023/07/25 13:54:06;;;;;;;8.13;1.85;;;;;;;;;;4988972;28;20082;-47
2023/07/25 13:56:31;;;;;;;4.82;1.23;;;;;;;;;;4993406;28;20038;-45
2023/07/25 13:58:57;;;;;;;9.88;1.55;;;;;;;;;;4998075;28;20049;-45
2023/07/25 14:01:22;;;;;;;5.63;1.20;;;;;;;;;;4997057;28;20089;-47
2023/07/25 14:03:47;;;;;;;6.13;1.65;;;;;;;;;;4999029;28;20030;-46
2023/07/25 14:06:13;;;;;;;8.88;1.63;;;;;;;;;;4996737;28;20054;-47
2023/07/25 14:08:38;;;;;;;4.68;1.48;;;;;;;;;;4978870;28;20109;-47
2023/07/25 14:11:04;;;;;;;4.72;1.70;;;;;;;;;;4969279;28;20034;-48
2023/07/25 14:13:30;;;;;;;4.10;1.35;;;;;;;;;;4987382;28;20045;-47
2023/07/25 14:15:55;;;;;;;6.35;1.40;;;;;;;;;;4982977;28;20039;-44
2023/07/25 14:18:22;;;;;;;4.38;1.33;;;;;;;;;;4990211;28;20068;-45
2023/07/25 14:20:48;;;;;;;1.90;1.30;;;;;;;;;;4995643;28;20062;-45
2023/07/25 14:23:13;;;;;;;1.58;1.20;;;;;;;;;;4997307;28;20034;-47
2023/07/25 14:25:38;;;;;;;5.32;2.13;;;;;;;;;;4998634;28;20402;-46
2023/07/25 14:28:04;;;;;;;5.10;1.10;;;;;;;;;;4995980;28;20474;-48
2023/07/25 14:30:31;;;;;;;3.50;1.50;;;;;;;;;;4996359;28;20038;-47
2023/07/25 14:32:57;;;;;;;3.10;1.50;;;;;;;;;;4997098;28;20388;-47
2023/07/25 14:35:22;;;;;;;6.28;1.35;;;;;;;;;;4991208;28;20047;-46
2023/07/25 14:37:47;;;;;;;7.10;1.25;;;;;;;;;;4995889;28;20027;-45